sensor_id;sensor_type;location;lat;lon;timestamp;P1;durP1;ratioP1;P2;durP2;ratioP2
5646;SDS011;2845;48.626;9.362;2023-12-14T00:00:00;1.30;;;0.30;;
5646;SDS011;2845;48.626;9.362;2023-12-14T00:02:34;0.65;;;0.32;;
5646;SDS011;2845;48.626;9.362;2023-12-14T00:05:09;0.63;;;0.38;;
5646;SDS011;2845;48.626;9.362;2023-12-14T00:07:44;0.90;;;0.40;;
5646;SDS011;2845;48.626;9.362;2023-12-14T00:10:19;0.82;;;0.30;;
5646;SDS011;2845;48.626;9.362;2023-12-14T00:12:54;1.20;;;0.47;;
5646;SDS011;2845;48.626;9.362;2023-12-14T00:15:29;0.88;;;0.47;;
5646;SDS011;2845;48.626;9.362;2023-12-14T00:18:04;1.00;;;0.50;;
5646;SDS011;2845;48.626;9.362;2023-12-14T00:20:38;0.73;;;0.20;;
5646;SDS011;2845;48.626;9.362;2023-12-14T00:23:13;1.05;;;0.38;;
5646;SDS011;2845;48.626;9.362;2023-12-14T00:25:48;1.02;;;0.40;;
5646;SDS011;2845;48.626;9.362;2023-12-14T00:28:23;0.75;;;0.30;;
5646;SDS011;2845;48.626;9.362;2023-12-14T00:31:02;1.00;;;0.30;;
5646;SDS011;2845;48.626;9.362;2023-12-14T00:33:37;0.50;;;0.30;;
5646;SDS011;2845;48.626;9.362;2023-12-14T00:36:17;0.68;;;0.38;;
5646;SDS011;2845;48.626;9.362;2023-12-14T00:38:51;1.17;;;0.43;;
5646;SDS011;2845;48.626;9.362;2023-12-14T00:41:28;1.05;;;0.52;;
5646;SDS011;2845;48.626;9.362;2023-12-14T00:44:02;1.20;;;0.60;;
5646;SDS011;2845;48.626;9.362;2023-12-14T00:46:37;1.48;;;0.50;;
5646;SDS011;2845;48.626;9.362;2023-12-14T00:49:13;1.33;;;0.60;;
5646;SDS011;2845;48.626;9.362;2023-12-14T00:51:50;0.75;;;0.47;;
5646;SDS011;2845;48.626;9.362;2023-12-14T00:54:24;0.55;;;0.40;;
5646;SDS011;2845;48.626;9.362;2023-12-14T00:57:00;1.15;;;0.40;;
5646;SDS011;2845;48.626;9.362;2023-12-14T00:59:34;2.05;;;0.60;;
5646;SDS011;2845;48.626;9.362;2023-12-14T01:02:08;1.63;;;0.57;;
5646;SDS011;2845;48.626;9.362;2023-12-14T01:04:42;0.90;;;0.40;;
5646;SDS011;2845;48.626;9.362;2023-12-14T01:07:17;0.90;;;0.60;;
5646;SDS011;2845;48.626;9.362;2023-12-14T01:09:51;0.77;;;0.40;;
5646;SDS011;2845;48.626;9.362;2023-12-14T01:12:27;0.63;;;0.22;;
5646;SDS011;2845;48.626;9.362;2023-12-14T01:15:01;1.48;;;0.60;;
5646;SDS011;2845;48.626;9.362;2023-12-14T01:17:35;2.30;;;0.75;;
5646;SDS011;2845;48.626;9.362;2023-12-14T01:20:10;1.45;;;0.50;;
5646;SDS011;2845;48.626;9.362;2023-12-14T01:22:45;1.13;;;0.60;;
5646;SDS011;2845;48.626;9.362;2023-12-14T01:25:22;1.67;;;0.77;;
5646;SDS011;2845;48.626;9.362;2023-12-14T01:27:59;1.33;;;0.50;;
5646;SDS011;2845;48.626;9.362;2023-12-14T01:30:33;1.60;;;0.60;;
5646;SDS011;2845;48.626;9.362;2023-12-14T01:33:07;1.55;;;0.60;;
5646;SDS011;2845;48.626;9.362;2023-12-14T01:35:42;1.08;;;0.40;;
5646;SDS011;2845;48.626;9.362;2023-12-14T01:38:16;1.35;;;0.50;;
5646;SDS011;2845;48.626;9.362;2023-12-14T01:40:50;1.15;;;0.40;;
5646;SDS011;2845;48.626;9.362;2023-12-14T01:43:26;1.00;;;0.50;;
5646;SDS011;2845;48.626;9.362;2023-12-14T01:46:00;1.42;;;0.52;;
5646;SDS011;2845;48.626;9.362;2023-12-14T01:48:34;2.05;;;0.85;;
5646;SDS011;2845;48.626;9.362;2023-12-14T01:51:09;1.48;;;0.57;;
5646;SDS011;2845;48.626;9.362;2023-12-14T01:53:43;1.73;;;0.90;;
5646;SDS011;2845;48.626;9.362;2023-12-14T01:56:17;1.52;;;0.40;;
5646;SDS011;2845;48.626;9.362;2023-12-14T01:58:53;0.77;;;0.40;;
5646;SDS011;2845;48.626;9.362;2023-12-14T02:01:28;0.80;;;0.35;;
5646;SDS011;2845;48.626;9.362;2023-12-14T02:04:11;0.70;;;0.30;;
5646;SDS011;2845;48.626;9.362;2023-12-14T02:06:47;1.23;;;0.73;;
5646;SDS011;2845;48.626;9.362;2023-12-14T02:09:21;1.33;;;0.45;;
5646;SDS011;2845;48.626;9.362;2023-12-14T02:11:57;1.05;;;0.40;;
5646;SDS011;2845;48.626;9.362;2023-12-14T02:14:32;0.98;;;0.40;;
5646;SDS011;2845;48.626;9.362;2023-12-14T02:17:07;1.30;;;0.35;;
5646;SDS011;2845;48.626;9.362;2023-12-14T02:19:41;1.13;;;0.40;;
5646;SDS011;2845;48.626;9.362;2023-12-14T02:22:16;1.52;;;0.40;;
5646;SDS011;2845;48.626;9.362;2023-12-14T02:24:51;0.80;;;0.50;;
5646;SDS011;2845;48.626;9.362;2023-12-14T02:27:25;0.85;;;0.43;;
5646;SDS011;2845;48.626;9.362;2023-12-14T02:29:59;0.52;;;0.28;;
5646;SDS011;2845;48.626;9.362;2023-12-14T02:32:34;1.33;;;0.60;;
5646;SDS011;2845;48.626;9.362;2023-12-14T02:35:08;0.95;;;0.45;;
5646;SDS011;2845;48.626;9.362;2023-12-14T02:37:43;3.13;;;0.50;;
5646;SDS011;2845;48.626;9.362;2023-12-14T02:40:19;2.03;;;0.45;;
5646;SDS011;2845;48.626;9.362;2023-12-14T02:42:56;1.35;;;0.68;;
5646;SDS011;2845;48.626;9.362;2023-12-14T02:45:30;1.40;;;0.50;;
5646;SDS011;2845;48.626;9.362;2023-12-14T02:48:04;0.93;;;0.30;;
5646;SDS011;2845;48.626;9.362;2023-12-14T02:50:39;0.95;;;0.38;;
5646;SDS011;2845;48.626;9.362;2023-12-14T02:53:13;1.05;;;0.50;;
5646;SDS011;2845;48.626;9.362;2023-12-14T02:55:50;2.55;;;0.77;;
5646;SDS011;2845;48.626;9.362;2023-12-14T02:58:24;0.52;;;0.30;;
5646;SDS011;2845;48.626;9.362;2023-12-14T03:00:58;1.17;;;0.43;;
5646;SDS011;2845;48.626;9.362;2023-12-14T03:03:32;0.77;;;0.30;;
5646;SDS011;2845;48.626;9.362;2023-12-14T03:06:06;0.75;;;0.40;;
5646;SDS011;2845;48.626;9.362;2023-12-14T03:08:41;1.30;;;0.50;;
5646;SDS011;2845;48.626;9.362;2023-12-14T03:11:22;2.30;;;0.52;;
5646;SDS011;2845;48.626;9.362;2023-12-14T03:13:57;1.35;;;0.60;;
5646;SDS011;2845;48.626;9.362;2023-12-14T03:16:31;1.90;;;0.82;;
5646;SDS011;2845;48.626;9.362;2023-12-14T03:19:07;1.17;;;0.68;;
5646;SDS011;2845;48.626;9.362;2023-12-14T03:21:42;1.50;;;0.60;;
5646;SDS011;2845;48.626;9.362;2023-12-14T03:24:16;1.42;;;0.82;;
5646;SDS011;2845;48.626;9.362;2023-12-14T03:26:51;1.42;;;0.57;;
5646;SDS011;2845;48.626;9.362;2023-12-14T03:29:26;1.58;;;0.55;;
5646;SDS011;2845;48.626;9.362;2023-12-14T03:32:01;1.63;;;0.60;;
5646;SDS011;2845;48.626;9.362;2023-12-14T03:34:35;1.27;;;0.70;;
5646;SDS011;2845;48.626;9.362;2023-12-14T03:37:09;1.08;;;0.52;;
5646;SDS011;2845;48.626;9.362;2023-12-14T03:39:43;1.60;;;0.80;;
5646;SDS011;2845;48.626;9.362;2023-12-14T03:42:19;2.80;;;0.90;;
5646;SDS011;2845;48.626;9.362;2023-12-14T03:44:57;1.85;;;0.70;;
5646;SDS011;2845;48.626;9.362;2023-12-14T03:47:31;3.22;;;0.98;;
5646;SDS011;2845;48.626;9.362;2023-12-14T03:50:06;2.05;;;0.80;;
5646;SDS011;2845;48.626;9.362;2023-12-14T03:52:41;1.45;;;0.70;;
5646;SDS011;2845;48.626;9.362;2023-12-14T03:55:16;1.98;;;0.63;;
5646;SDS011;2845;48.626;9.362;2023-12-14T03:57:51;1.75;;;0.70;;
5646;SDS011;2845;48.626;9.362;2023-12-14T04:00:26;7.25;;;0.93;;
5646;SDS011;2845;48.626;9.362;2023-12-14T04:03:01;3.22;;;1.08;;
5646;SDS011;2845;48.626;9.362;2023-12-14T04:05:35;2.35;;;0.80;;
5646;SDS011;2845;48.626;9.362;2023-12-14T04:08:12;1.92;;;0.85;;
5646;SDS011;2845;48.626;9.362;2023-12-14T04:10:47;2.20;;;1.08;;
5646;SDS011;2845;48.626;9.362;2023-12-14T04:13:23;3.28;;;1.27;;
5646;SDS011;2845;48.626;9.362;2023-12-14T04:15:57;3.03;;;0.95;;
5646;SDS011;2845;48.626;9.362;2023-12-14T04:18:31;3.20;;;0.90;;
5646;SDS011;2845;48.626;9.362;2023-12-14T04:21:06;1.95;;;0.82;;
5646;SDS011;2845;48.626;9.362;2023-12-14T04:23:40;2.75;;;1.13;;
5646;SDS011;2845;48.626;9.362;2023-12-14T04:26:14;2.63;;;1.00;;
5646;SDS011;2845;48.626;9.362;2023-12-14T04:28:50;2.45;;;1.08;;
5646;SDS011;2845;48.626;9.362;2023-12-14T04:31:24;2.47;;;1.00;;
5646;SDS011;2845;48.626;9.362;2023-12-14T04:33:58;2.72;;;0.77;;
5646;SDS011;2845;48.626;9.362;2023-12-14T04:36:32;1.88;;;0.77;;
5646;SDS011;2845;48.626;9.362;2023-12-14T04:39:06;1.73;;;0.82;;
5646;SDS011;2845;48.626;9.362;2023-12-14T04:41:41;1.90;;;0.90;;
5646;SDS011;2845;48.626;9.362;2023-12-14T04:44:17;1.08;;;0.60;;
5646;SDS011;2845;48.626;9.362;2023-12-14T04:46:51;2.58;;;1.02;;
5646;SDS011;2845;48.626;9.362;2023-12-14T04:49:25;1.70;;;0.90;;
5646;SDS011;2845;48.626;9.362;2023-12-14T04:51:59;1.75;;;0.70;;
5646;SDS011;2845;48.626;9.362;2023-12-14T04:54:34;1.90;;;0.95;;
5646;SDS011;2845;48.626;9.362;2023-12-14T04:57:10;3.05;;;1.30;;
5646;SDS011;2845;48.626;9.362;2023-12-14T04:59:46;2.33;;;1.05;;
5646;SDS011;2845;48.626;9.362;2023-12-14T05:02:20;3.00;;;1.10;;
5646;SDS011;2845;48.626;9.362;2023-12-14T05:04:55;2.45;;;1.13;;
5646;SDS011;2845;48.626;9.362;2023-12-14T05:07:29;2.28;;;1.00;;
5646;SDS011;2845;48.626;9.362;2023-12-14T05:10:04;2.70;;;0.90;;
5646;SDS011;2845;48.626;9.362;2023-12-14T05:12:40;2.38;;;1.02;;
5646;SDS011;2845;48.626;9.362;2023-12-14T05:15:15;2.03;;;1.08;;
5646;SDS011;2845;48.626;9.362;2023-12-14T05:17:50;2.42;;;0.93;;
5646;SDS011;2845;48.626;9.362;2023-12-14T05:20:25;1.45;;;0.90;;
5646;SDS011;2845;48.626;9.362;2023-12-14T05:22:59;2.45;;;1.00;;
5646;SDS011;2845;48.626;9.362;2023-12-14T05:25:33;2.05;;;0.98;;
5646;SDS011;2845;48.626;9.362;2023-12-14T05:28:08;2.03;;;0.85;;
5646;SDS011;2845;48.626;9.362;2023-12-14T05:30:43;3.60;;;1.20;;
5646;SDS011;2845;48.626;9.362;2023-12-14T05:33:18;3.67;;;1.00;;
5646;SDS011;2845;48.626;9.362;2023-12-14T05:35:52;1.77;;;1.02;;
5646;SDS011;2845;48.626;9.362;2023-12-14T05:38:26;3.50;;;1.08;;
5646;SDS011;2845;48.626;9.362;2023-12-14T05:41:01;2.65;;;1.27;;
5646;SDS011;2845;48.626;9.362;2023-12-14T05:43:37;3.25;;;1.30;;
5646;SDS011;2845;48.626;9.362;2023-12-14T05:46:20;2.58;;;0.93;;
5646;SDS011;2845;48.626;9.362;2023-12-14T05:48:57;2.20;;;1.20;;
5646;SDS011;2845;48.626;9.362;2023-12-14T05:51:32;4.75;;;1.42;;
5646;SDS011;2845;48.626;9.362;2023-12-14T05:54:16;1.65;;;0.90;;
5646;SDS011;2845;48.626;9.362;2023-12-14T05:56:50;2.97;;;1.42;;
5646;SDS011;2845;48.626;9.362;2023-12-14T05:59:25;2.83;;;1.20;;
5646;SDS011;2845;48.626;9.362;2023-12-14T06:02:00;1.25;;;0.68;;
5646;SDS011;2845;48.626;9.362;2023-12-14T06:04:36;2.67;;;0.95;;
5646;SDS011;2845;48.626;9.362;2023-12-14T06:07:13;2.38;;;1.27;;
5646;SDS011;2845;48.626;9.362;2023-12-14T06:09:50;3.28;;;1.25;;
5646;SDS011;2845;48.626;9.362;2023-12-14T06:12:30;3.38;;;1.35;;
5646;SDS011;2845;48.626;9.362;2023-12-14T06:15:10;2.53;;;1.40;;
5646;SDS011;2845;48.626;9.362;2023-12-14T06:17:48;3.20;;;1.33;;
5646;SDS011;2845;48.626;9.362;2023-12-14T06:20:25;2.72;;;1.63;;
5646;SDS011;2845;48.626;9.362;2023-12-14T06:22:59;4.68;;;1.60;;
5646;SDS011;2845;48.626;9.362;2023-12-14T06:25:34;4.07;;;1.92;;
5646;SDS011;2845;48.626;9.362;2023-12-14T06:28:11;4.93;;;2.17;;
5646;SDS011;2845;48.626;9.362;2023-12-14T06:30:46;3.63;;;1.73;;
5646;SDS011;2845;48.626;9.362;2023-12-14T06:33:21;2.70;;;1.60;;
5646;SDS011;2845;48.626;9.362;2023-12-14T06:36:03;3.42;;;1.73;;
5646;SDS011;2845;48.626;9.362;2023-12-14T06:38:39;3.63;;;1.77;;
5646;SDS011;2845;48.626;9.362;2023-12-14T06:41:20;2.28;;;1.30;;
5646;SDS011;2845;48.626;9.362;2023-12-14T06:43:55;3.38;;;1.50;;
5646;SDS011;2845;48.626;9.362;2023-12-14T06:46:29;2.80;;;1.40;;
5646;SDS011;2845;48.626;9.362;2023-12-14T06:49:04;2.65;;;1.48;;
5646;SDS011;2845;48.626;9.362;2023-12-14T06:51:39;3.95;;;1.58;;
5646;SDS011;2845;48.626;9.362;2023-12-14T06:54:13;2.90;;;1.40;;
5646;SDS011;2845;48.626;9.362;2023-12-14T06:56:47;3.38;;;1.75;;
5646;SDS011;2845;48.626;9.362;2023-12-14T06:59:22;2.20;;;1.08;;
5646;SDS011;2845;48.626;9.362;2023-12-14T07:02:00;2.55;;;1.00;;
5646;SDS011;2845;48.626;9.362;2023-12-14T07:04:36;2.58;;;1.05;;
5646;SDS011;2845;48.626;9.362;2023-12-14T07:07:10;3.22;;;1.48;;
5646;SDS011;2845;48.626;9.362;2023-12-14T07:09:45;3.03;;;1.48;;
5646;SDS011;2845;48.626;9.362;2023-12-14T07:12:19;2.55;;;1.33;;
5646;SDS011;2845;48.626;9.362;2023-12-14T07:14:53;3.90;;;1.50;;
5646;SDS011;2845;48.626;9.362;2023-12-14T07:17:28;2.80;;;1.50;;
5646;SDS011;2845;48.626;9.362;2023-12-14T07:20:05;2.70;;;1.35;;
5646;SDS011;2845;48.626;9.362;2023-12-14T07:22:41;4.57;;;2.03;;
5646;SDS011;2845;48.626;9.362;2023-12-14T07:25:15;3.15;;;1.70;;
5646;SDS011;2845;48.626;9.362;2023-12-14T07:27:49;4.38;;;1.80;;
5646;SDS011;2845;48.626;9.362;2023-12-14T07:30:24;3.30;;;1.50;;
5646;SDS011;2845;48.626;9.362;2023-12-14T07:32:59;3.45;;;1.42;;
5646;SDS011;2845;48.626;9.362;2023-12-14T07:35:35;5.22;;;1.83;;
5646;SDS011;2845;48.626;9.362;2023-12-14T07:38:09;2.72;;;1.50;;
5646;SDS011;2845;48.626;9.362;2023-12-14T07:40:43;2.78;;;1.40;;
5646;SDS011;2845;48.626;9.362;2023-12-14T07:43:19;4.20;;;1.55;;
5646;SDS011;2845;48.626;9.362;2023-12-14T07:45:53;4.00;;;1.48;;
5646;SDS011;2845;48.626;9.362;2023-12-14T07:48:27;4.15;;;1.63;;
5646;SDS011;2845;48.626;9.362;2023-12-14T07:51:03;3.22;;;1.45;;
5646;SDS011;2845;48.626;9.362;2023-12-14T07:53:38;3.42;;;1.70;;
5646;SDS011;2845;48.626;9.362;2023-12-14T07:56:13;3.42;;;1.88;;
5646;SDS011;2845;48.626;9.362;2023-12-14T07:58:47;3.65;;;1.70;;
5646;SDS011;2845;48.626;9.362;2023-12-14T08:01:21;2.92;;;1.40;;
5646;SDS011;2845;48.626;9.362;2023-12-14T08:03:57;5.57;;;1.98;;
5646;SDS011;2845;48.626;9.362;2023-12-14T08:06:33;4.10;;;1.85;;
5646;SDS011;2845;48.626;9.362;2023-12-14T08:09:07;5.38;;;1.55;;
5646;SDS011;2845;48.626;9.362;2023-12-14T08:11:41;4.55;;;2.28;;
5646;SDS011;2845;48.626;9.362;2023-12-14T08:14:16;2.85;;;1.50;;
5646;SDS011;2845;48.626;9.362;2023-12-14T08:16:50;3.47;;;1.10;;
5646;SDS011;2845;48.626;9.362;2023-12-14T08:19:24;3.88;;;1.60;;
5646;SDS011;2845;48.626;9.362;2023-12-14T08:22:03;3.17;;;1.52;;
5646;SDS011;2845;48.626;9.362;2023-12-14T08:24:37;4.75;;;2.15;;
5646;SDS011;2845;48.626;9.362;2023-12-14T08:27:11;3.53;;;1.85;;
5646;SDS011;2845;48.626;9.362;2023-12-14T08:29:45;3.53;;;1.65;;
5646;SDS011;2845;48.626;9.362;2023-12-14T08:32:19;2.83;;;1.50;;
5646;SDS011;2845;48.626;9.362;2023-12-14T08:34:54;3.58;;;1.38;;
5646;SDS011;2845;48.626;9.362;2023-12-14T08:37:29;2.58;;;1.58;;
5646;SDS011;2845;48.626;9.362;2023-12-14T08:40:04;3.80;;;1.50;;
5646;SDS011;2845;48.626;9.362;2023-12-14T08:42:40;3.75;;;1.58;;
5646;SDS011;2845;48.626;9.362;2023-12-14T08:45:15;2.53;;;1.30;;
5646;SDS011;2845;48.626;9.362;2023-12-14T08:47:49;3.15;;;1.10;;
5646;SDS011;2845;48.626;9.362;2023-12-14T08:50:24;2.75;;;1.63;;
5646;SDS011;2845;48.626;9.362;2023-12-14T08:53:01;3.70;;;1.40;;
5646;SDS011;2845;48.626;9.362;2023-12-14T08:55:37;2.90;;;1.50;;
5646;SDS011;2845;48.626;9.362;2023-12-14T08:58:11;2.85;;;1.30;;
5646;SDS011;2845;48.626;9.362;2023-12-14T09:00:45;2.28;;;1.20;;
5646;SDS011;2845;48.626;9.362;2023-12-14T09:03:19;3.67;;;1.50;;
5646;SDS011;2845;48.626;9.362;2023-12-14T09:05:54;2.83;;;1.25;;
5646;SDS011;2845;48.626;9.362;2023-12-14T09:08:32;3.13;;;1.33;;
5646;SDS011;2845;48.626;9.362;2023-12-14T09:11:06;2.72;;;1.20;;
5646;SDS011;2845;48.626;9.362;2023-12-14T09:13:41;4.32;;;1.50;;
5646;SDS011;2845;48.626;9.362;2023-12-14T09:16:15;2.22;;;1.15;;
5646;SDS011;2845;48.626;9.362;2023-12-14T09:18:49;3.08;;;1.50;;
5646;SDS011;2845;48.626;9.362;2023-12-14T09:21:24;3.15;;;1.48;;
5646;SDS011;2845;48.626;9.362;2023-12-14T09:24:13;4.07;;;1.60;;
5646;SDS011;2845;48.626;9.362;2023-12-14T09:26:48;3.38;;;1.55;;
5646;SDS011;2845;48.626;9.362;2023-12-14T09:29:23;3.15;;;1.38;;
5646;SDS011;2845;48.626;9.362;2023-12-14T09:31:58;3.60;;;2.03;;
5646;SDS011;2845;48.626;9.362;2023-12-14T09:34:33;3.40;;;1.67;;
5646;SDS011;2845;48.626;9.362;2023-12-14T09:37:07;3.88;;;1.92;;
5646;SDS011;2845;48.626;9.362;2023-12-14T09:39:44;3.53;;;1.77;;
5646;SDS011;2845;48.626;9.362;2023-12-14T09:42:19;3.65;;;2.03;;
5646;SDS011;2845;48.626;9.362;2023-12-14T09:44:54;4.43;;;1.83;;
5646;SDS011;2845;48.626;9.362;2023-12-14T09:47:30;4.28;;;2.13;;
5646;SDS011;2845;48.626;9.362;2023-12-14T09:50:05;2.03;;;1.42;;
5646;SDS011;2845;48.626;9.362;2023-12-14T09:52:42;3.22;;;1.60;;
5646;SDS011;2845;48.626;9.362;2023-12-14T09:55:19;3.28;;;1.83;;
5646;SDS011;2845;48.626;9.362;2023-12-14T09:57:53;3.58;;;1.83;;
5646;SDS011;2845;48.626;9.362;2023-12-14T10:00:34;4.30;;;2.53;;
5646;SDS011;2845;48.626;9.362;2023-12-14T10:03:23;3.75;;;2.55;;
5646;SDS011;2845;48.626;9.362;2023-12-14T10:06:00;4.22;;;2.20;;
5646;SDS011;2845;48.626;9.362;2023-12-14T10:08:35;4.28;;;2.42;;
5646;SDS011;2845;48.626;9.362;2023-12-14T10:11:15;5.10;;;2.00;;
5646;SDS011;2845;48.626;9.362;2023-12-14T10:13:50;5.17;;;2.00;;
5646;SDS011;2845;48.626;9.362;2023-12-14T10:16:28;4.35;;;1.85;;
5646;SDS011;2845;48.626;9.362;2023-12-14T10:19:03;4.95;;;2.03;;
5646;SDS011;2845;48.626;9.362;2023-12-14T10:21:39;3.75;;;2.13;;
5646;SDS011;2845;48.626;9.362;2023-12-14T10:24:13;3.80;;;2.10;;
5646;SDS011;2845;48.626;9.362;2023-12-14T10:26:53;4.00;;;1.55;;
5646;SDS011;2845;48.626;9.362;2023-12-14T10:29:28;3.83;;;1.65;;
5646;SDS011;2845;48.626;9.362;2023-12-14T10:32:03;3.15;;;1.70;;
5646;SDS011;2845;48.626;9.362;2023-12-14T10:34:39;4.43;;;1.75;;
5646;SDS011;2845;48.626;9.362;2023-12-14T10:37:14;3.55;;;1.50;;
5646;SDS011;2845;48.626;9.362;2023-12-14T10:39:50;4.25;;;2.25;;
5646;SDS011;2845;48.626;9.362;2023-12-14T10:42:27;3.33;;;1.88;;
5646;SDS011;2845;48.626;9.362;2023-12-14T10:45:03;4.35;;;1.95;;
5646;SDS011;2845;48.626;9.362;2023-12-14T10:47:50;3.30;;;1.90;;
5646;SDS011;2845;48.626;9.362;2023-12-14T10:50:26;3.75;;;1.73;;
5646;SDS011;2845;48.626;9.362;2023-12-14T10:53:04;3.38;;;1.95;;
5646;SDS011;2845;48.626;9.362;2023-12-14T10:55:40;4.18;;;2.03;;
5646;SDS011;2845;48.626;9.362;2023-12-14T10:58:19;5.65;;;2.10;;
5646;SDS011;2845;48.626;9.362;2023-12-14T11:00:58;3.30;;;1.77;;
5646;SDS011;2845;48.626;9.362;2023-12-14T11:03:34;4.70;;;2.08;;
5646;SDS011;2845;48.626;9.362;2023-12-14T11:09:07;3.55;;;1.40;;
5646;SDS011;2845;48.626;9.362;2023-12-14T11:11:47;3.65;;;1.67;;
5646;SDS011;2845;48.626;9.362;2023-12-14T11:14:32;3.05;;;1.40;;
5646;SDS011;2845;48.626;9.362;2023-12-14T11:17:08;2.83;;;1.33;;
5646;SDS011;2845;48.626;9.362;2023-12-14T11:19:45;3.55;;;1.80;;
5646;SDS011;2845;48.626;9.362;2023-12-14T11:22:23;4.43;;;1.83;;
5646;SDS011;2845;48.626;9.362;2023-12-14T11:25:02;3.60;;;1.40;;
5646;SDS011;2845;48.626;9.362;2023-12-14T11:27:37;3.47;;;1.77;;
5646;SDS011;2845;48.626;9.362;2023-12-14T11:30:18;4.13;;;1.67;;
5646;SDS011;2845;48.626;9.362;2023-12-14T11:32:54;4.57;;;2.35;;
5646;SDS011;2845;48.626;9.362;2023-12-14T11:35:28;3.08;;;1.50;;
5646;SDS011;2845;48.626;9.362;2023-12-14T11:38:05;4.50;;;1.70;;
5646;SDS011;2845;48.626;9.362;2023-12-14T11:40:44;2.40;;;1.30;;
5646;SDS011;2845;48.626;9.362;2023-12-14T11:43:20;2.95;;;1.35;;
5646;SDS011;2845;48.626;9.362;2023-12-14T11:45:57;2.92;;;1.50;;
5646;SDS011;2845;48.626;9.362;2023-12-14T11:48:31;3.78;;;1.58;;
5646;SDS011;2845;48.626;9.362;2023-12-14T11:51:06;3.65;;;1.42;;
5646;SDS011;2845;48.626;9.362;2023-12-14T11:53:40;2.95;;;0.98;;
5646;SDS011;2845;48.626;9.362;2023-12-14T11:56:17;2.17;;;0.80;;
5646;SDS011;2845;48.626;9.362;2023-12-14T11:58:55;1.55;;;0.75;;
5646;SDS011;2845;48.626;9.362;2023-12-14T12:01:48;1.95;;;1.00;;
5646;SDS011;2845;48.626;9.362;2023-12-14T12:04:29;3.33;;;0.70;;
5646;SDS011;2845;48.626;9.362;2023-12-14T12:07:09;1.30;;;0.65;;
5646;SDS011;2845;48.626;9.362;2023-12-14T12:09:44;1.30;;;0.70;;
5646;SDS011;2845;48.626;9.362;2023-12-14T12:12:18;1.58;;;0.95;;
5646;SDS011;2845;48.626;9.362;2023-12-14T12:14:54;3.65;;;1.67;;
5646;SDS011;2845;48.626;9.362;2023-12-14T12:17:30;2.92;;;1.30;;
5646;SDS011;2845;48.626;9.362;2023-12-14T12:20:10;2.08;;;1.00;;
5646;SDS011;2845;48.626;9.362;2023-12-14T12:22:44;2.13;;;0.98;;
5646;SDS011;2845;48.626;9.362;2023-12-14T12:25:18;2.20;;;1.13;;
5646;SDS011;2845;48.626;9.362;2023-12-14T12:27:54;2.45;;;1.20;;
5646;SDS011;2845;48.626;9.362;2023-12-14T12:30:28;3.28;;;1.25;;
5646;SDS011;2845;48.626;9.362;2023-12-14T12:33:05;1.77;;;0.95;;
5646;SDS011;2845;48.626;9.362;2023-12-14T12:35:40;1.70;;;0.95;;
5646;SDS011;2845;48.626;9.362;2023-12-14T12:38:17;2.78;;;1.38;;
5646;SDS011;2845;48.626;9.362;2023-12-14T12:40:53;2.17;;;1.10;;
5646;SDS011;2845;48.626;9.362;2023-12-14T12:43:29;2.30;;;0.90;;
5646;SDS011;2845;48.626;9.362;2023-12-14T12:46:04;2.45;;;0.80;;
5646;SDS011;2845;48.626;9.362;2023-12-14T12:48:40;1.83;;;0.65;;
5646;SDS011;2845;48.626;9.362;2023-12-14T12:51:14;2.50;;;1.05;;
5646;SDS011;2845;48.626;9.362;2023-12-14T12:53:49;1.75;;;0.80;;
5646;SDS011;2845;48.626;9.362;2023-12-14T12:56:28;2.67;;;0.70;;
5646;SDS011;2845;48.626;9.362;2023-12-14T12:59:03;4.50;;;1.42;;
5646;SDS011;2845;48.626;9.362;2023-12-14T13:01:41;1.95;;;0.73;;
5646;SDS011;2845;48.626;9.362;2023-12-14T13:04:20;1.48;;;0.80;;
5646;SDS011;2845;48.626;9.362;2023-12-14T13:06:56;1.98;;;0.80;;
5646;SDS011;2845;48.626;9.362;2023-12-14T13:09:31;1.80;;;0.93;;
5646;SDS011;2845;48.626;9.362;2023-12-14T13:12:07;1.67;;;0.77;;
5646;SDS011;2845;48.626;9.362;2023-12-14T13:14:42;2.10;;;0.60;;
5646;SDS011;2845;48.626;9.362;2023-12-14T13:17:17;1.30;;;0.55;;
5646;SDS011;2845;48.626;9.362;2023-12-14T13:19:53;1.35;;;0.63;;
5646;SDS011;2845;48.626;9.362;2023-12-14T13:22:28;1.48;;;0.60;;
5646;SDS011;2845;48.626;9.362;2023-12-14T13:25:03;2.92;;;0.65;;
5646;SDS011;2845;48.626;9.362;2023-12-14T13:27:38;2.78;;;0.73;;
5646;SDS011;2845;48.626;9.362;2023-12-14T13:30:13;1.50;;;0.75;;
5646;SDS011;2845;48.626;9.362;2023-12-14T13:32:51;1.52;;;0.47;;
5646;SDS011;2845;48.626;9.362;2023-12-14T13:35:28;1.75;;;0.75;;
5646;SDS011;2845;48.626;9.362;2023-12-14T13:38:02;0.95;;;0.50;;
5646;SDS011;2845;48.626;9.362;2023-12-14T13:40:37;2.00;;;0.80;;
5646;SDS011;2845;48.626;9.362;2023-12-14T13:43:12;2.60;;;0.90;;
5646;SDS011;2845;48.626;9.362;2023-12-14T13:45:51;1.27;;;0.88;;
5646;SDS011;2845;48.626;9.362;2023-12-14T13:48:48;1.35;;;0.50;;
5646;SDS011;2845;48.626;9.362;2023-12-14T13:51:24;1.50;;;0.50;;
5646;SDS011;2845;48.626;9.362;2023-12-14T13:53:59;1.35;;;0.60;;
5646;SDS011;2845;48.626;9.362;2023-12-14T13:56:34;1.35;;;0.50;;
5646;SDS011;2845;48.626;9.362;2023-12-14T13:59:08;0.82;;;0.43;;
5646;SDS011;2845;48.626;9.362;2023-12-14T14:01:42;0.65;;;0.38;;
5646;SDS011;2845;48.626;9.362;2023-12-14T14:04:17;1.25;;;0.40;;
5646;SDS011;2845;48.626;9.362;2023-12-14T14:06:54;1.23;;;0.57;;
5646;SDS011;2845;48.626;9.362;2023-12-14T14:09:30;1.63;;;0.40;;
5646;SDS011;2845;48.626;9.362;2023-12-14T14:12:05;1.33;;;0.50;;
5646;SDS011;2845;48.626;9.362;2023-12-14T14:14:40;1.77;;;0.40;;
5646;SDS011;2845;48.626;9.362;2023-12-14T14:17:15;0.73;;;0.30;;
5646;SDS011;2845;48.626;9.362;2023-12-14T14:19:49;1.27;;;0.43;;
5646;SDS011;2845;48.626;9.362;2023-12-14T14:22:26;1.23;;;0.50;;
5646;SDS011;2845;48.626;9.362;2023-12-14T14:25:00;1.42;;;0.47;;
5646;SDS011;2845;48.626;9.362;2023-12-14T14:27:34;0.80;;;0.30;;
5646;SDS011;2845;48.626;9.362;2023-12-14T14:30:13;0.90;;;0.20;;
5646;SDS011;2845;48.626;9.362;2023-12-14T14:32:48;1.20;;;0.50;;
5646;SDS011;2845;48.626;9.362;2023-12-14T14:35:22;1.77;;;0.65;;
5646;SDS011;2845;48.626;9.362;2023-12-14T14:38:01;1.60;;;0.65;;
5646;SDS011;2845;48.626;9.362;2023-12-14T14:40:35;1.70;;;0.65;;
5646;SDS011;2845;48.626;9.362;2023-12-14T14:43:10;1.90;;;1.00;;
5646;SDS011;2845;48.626;9.362;2023-12-14T14:45:45;2.00;;;0.80;;
5646;SDS011;2845;48.626;9.362;2023-12-14T14:48:19;2.15;;;0.88;;
5646;SDS011;2845;48.626;9.362;2023-12-14T14:50:53;2.42;;;0.80;;
5646;SDS011;2845;48.626;9.362;2023-12-14T14:53:29;2.78;;;0.90;;
5646;SDS011;2845;48.626;9.362;2023-12-14T14:56:04;1.80;;;0.80;;
5646;SDS011;2845;48.626;9.362;2023-12-14T14:58:39;2.58;;;1.00;;
5646;SDS011;2845;48.626;9.362;2023-12-14T15:01:18;1.95;;;0.70;;
5646;SDS011;2845;48.626;9.362;2023-12-14T15:03:52;1.35;;;0.63;;
5646;SDS011;2845;48.626;9.362;2023-12-14T15:06:27;3.22;;;1.30;;
5646;SDS011;2845;48.626;9.362;2023-12-14T15:09:03;3.60;;;1.23;;
5646;SDS011;2845;48.626;9.362;2023-12-14T15:11:41;4.20;;;1.13;;
5646;SDS011;2845;48.626;9.362;2023-12-14T15:14:15;1.50;;;0.70;;
5646;SDS011;2845;48.626;9.362;2023-12-14T15:16:50;3.25;;;1.23;;
5646;SDS011;2845;48.626;9.362;2023-12-14T15:19:25;2.35;;;1.20;;
5646;SDS011;2845;48.626;9.362;2023-12-14T15:22:00;2.55;;;1.10;;
5646;SDS011;2845;48.626;9.362;2023-12-14T15:24:35;5.38;;;1.90;;
5646;SDS011;2845;48.626;9.362;2023-12-14T15:27:13;3.33;;;1.52;;
5646;SDS011;2845;48.626;9.362;2023-12-14T15:29:48;3.78;;;1.73;;
5646;SDS011;2845;48.626;9.362;2023-12-14T15:32:22;3.47;;;1.60;;
5646;SDS011;2845;48.626;9.362;2023-12-14T15:34:56;6.68;;;1.52;;
5646;SDS011;2845;48.626;9.362;2023-12-14T15:37:31;7.60;;;3.03;;
5646;SDS011;2845;48.626;9.362;2023-12-14T15:40:08;4.68;;;1.98;;
5646;SDS011;2845;48.626;9.362;2023-12-14T15:42:43;5.78;;;2.42;;
5646;SDS011;2845;48.626;9.362;2023-12-14T15:45:17;6.38;;;2.20;;
5646;SDS011;2845;48.626;9.362;2023-12-14T15:47:53;5.60;;;2.28;;
5646;SDS011;2845;48.626;9.362;2023-12-14T15:50:27;6.35;;;2.60;;
5646;SDS011;2845;48.626;9.362;2023-12-14T15:53:02;4.47;;;2.25;;
5646;SDS011;2845;48.626;9.362;2023-12-14T15:55:39;6.75;;;3.00;;
5646;SDS011;2845;48.626;9.362;2023-12-14T15:58:13;4.13;;;2.20;;
5646;SDS011;2845;48.626;9.362;2023-12-14T16:00:48;5.10;;;2.92;;
5646;SDS011;2845;48.626;9.362;2023-12-14T16:03:22;6.15;;;2.53;;
5646;SDS011;2845;48.626;9.362;2023-12-14T16:05:57;4.70;;;2.10;;
5646;SDS011;2845;48.626;9.362;2023-12-14T16:08:32;6.97;;;3.28;;